Time;durP1;ratioP1;P1;durP2;ratioP2;P2;SDS_P1;SDS_P2;PMS_P1;PMS_P2;Temp;Humidity;BMP_temperature;BMP_pressure;BME280_temperature;BME280_humidity;BME280_pressure;Samples;Min_cycle;Max_cycle;Signal;HPM_P1;HPM_P2
2022/08/30 00:03:13;;;;;;;16.38;9.07;;;;;;;20.96;67.92;99069.44;5030471;28;20496;-55
2022/08/30 00:05:40;;;;;;;17.25;9.18;;;;;;;20.94;68.03;99071.56;5018105;28;20100;-51
2022/08/30 00:08:06;;;;;;;18.75;9.55;;;;;;;20.94;68.34;99066.09;5010115;28;20046;-50
2022/08/30 00:10:32;;;;;;;16.48;9.10;;;;;;;20.92;68.18;99066.34;5010062;28;20036;-48
2022/08/30 00:12:59;;;;;;;25.02;9.52;;;;;;;20.93;67.86;99075.31;5024407;28;20033;-53
2022/08/30 00:15:25;;;;;;;24.58;9.50;;;;;;;20.93;68.12;99072.59;5030047;28;20033;-51
2022/08/30 00:17:51;;;;;;;22.92;9.43;;;;;;;20.83;68.26;99053.16;5029897;28;20037;-53
2022/08/30 00:20:22;;;;;;;18.13;9.32;;;;;;;20.90;68.30;99075.75;5028197;28;20033;-49
2022/08/30 00:22:47;;;;;;;18.98;9.50;;;;;;;20.86;68.61;99066.34;5030019;28;20178;-54
2022/08/30 00:25:14;;;;;;;22.33;9.70;;;;;;;20.89;68.28;99064.03;5029987;28;20112;-51
2022/08/30 00:27:40;;;;;;;20.70;9.40;;;;;;;20.89;68.30;99064.03;5017619;28;20457;-50
2022/08/30 00:30:07;;;;;;;20.88;9.23;;;;;;;20.91;68.36;99072.81;5010178;28;20509;-54
2022/08/30 00:32:33;;;;;;;20.33;10.20;;;;;;;20.92;68.26;99073.66;5010397;28;20041;-51
2022/08/30 00:34:58;;;;;;;21.35;10.20;;;;;;;20.93;68.01;99070.72;5024680;28;20033;-52
2022/08/30 00:37:24;;;;;;;18.23;9.38;;;;;;;20.91;68.21;99074.69;5029951;28;20048;-54
2022/08/30 00:39:49;;;;;;;23.13;10.73;;;;;;;20.87;67.97;99065.28;5024523;28;20058;-50
2022/08/30 00:42:16;;;;;;;22.13;11.20;;;;;;;20.86;68.28;99079.94;5010713;28;20033;-53
2022/08/30 00:44:42;;;;;;;21.60;10.60;;;;;;;20.83;68.21;99077.63;5008883;28;20048;-50
2022/08/30 00:47:08;;;;;;;23.13;10.15;;;;;;;20.75;68.26;99065.91;5023835;28;20760;-49
2022/08/30 00:49:36;;;;;;;17.80;10.25;;;;;;;20.77;68.29;99080.13;5030022;28;20393;-49
2022/08/30 00:52:03;;;;;;;20.17;10.65;;;;;;;20.75;68.38;99076.78;5033018;28;20029;-53
2022/08/30 00:54:30;;;;;;;18.90;9.85;;;;;;;20.70;68.47;99073.81;5013765;28;20025;-54
2022/08/30 00:56:56;;;;;;;18.90;9.55;;;;;;;20.50;68.51;99044.75;5014554;28;20044;-55
2022/08/30 00:59:24;;;;;;;21.08;9.27;;;;;;;20.65;68.64;99066.31;5014897;28;20125;-53
2022/08/30 01:01:49;;;;;;;20.95;9.88;;;;;;;20.51;68.87;99042.88;5033340;28;20029;-50
2022/08/30 01:04:18;;;;;;;26.17;10.45;;;;;;;20.61;68.66;99073.19;5033030;28;20033;-54
2022/08/30 01:06:44;;;;;;;24.05;9.90;;;;;;;20.58;68.71;99060.00;5020946;28;20041;-53
2022/08/30 01:09:11;;;;;;;25.27;9.90;;;;;;;20.53;69.01;99050.81;5013930;28;20450;-51
2022/08/30 01:11:40;;;;;;;22.50;9.05;;;;;;;20.60;68.70;99057.09;5016008;28;20048;-52
2022/08/30 01:14:10;;;;;;;20.17;9.82;;;;;;;20.63;68.85;99056.69;5032974;28;20049;-50
2022/08/30 01:16:38;;;;;;;23.77;9.50;;;;;;;20.67;68.60;99057.09;5033308;28;20132;-55
2022/08/30 01:19:07;;;;;;;21.08;9.27;;;;;;;20.66;68.57;99058.97;5018556;28;20072;-63
2022/08/30 01:21:48;;;;;;;20.90;9.38;;;;;;;20.77;68.73;99052.91;5013440;28;20045;-52
2022/08/30 01:24:15;;;;;;;18.08;9.27;;;;;;;20.67;68.30;99038.06;5020940;28;20440;-53
2022/08/30 01:26:40;;;;;;;23.67;9.65;;;;;;;20.69;68.42;99042.22;5033253;28;20026;-54
2022/08/30 01:29:12;;;;;;;20.83;8.55;;;;;;;20.63;68.26;99034.91;5033143;28;20377;-53
2022/08/30 01:31:37;;;;;;;20.42;9.30;;;;;;;20.67;68.59;99038.88;5032603;28;20055;-56
2022/08/30 01:34:06;;;;;;;19.20;9.25;;;;;;;20.71;68.41;99047.47;5026219;28;20022;-53
2022/08/30 01:36:33;;;;;;;20.70;9.18;;;;;;;20.68;68.27;99056.06;5013454;28;20029;-56
2022/08/30 01:38:59;;;;;;;19.42;8.95;;;;;;;20.65;68.36;99046.44;5013275;28;20029;-55
2022/08/30 01:41:31;;;;;;;16.73;9.27;;;;;;;20.71;68.27;99037.41;5030364;28;20881;-53
2022/08/30 01:44:00;;;;;;;21.25;9.00;;;;;;;20.68;68.21;99048.72;5032237;28;20038;-52
2022/08/30 01:46:34;;;;;;;16.05;8.23;;;;;;;20.67;68.21;99047.06;5032916;28;20025;-52
2022/08/30 01:49:02;;;;;;;22.70;8.80;;;;;;;20.56;68.09;99042.25;5031150;28;20051;-51
2022/08/30 01:51:28;;;;;;;20.58;8.40;;;;;;;20.51;68.68;99053.75;5032276;28;20038;-55
2022/08/30 01:53:54;;;;;;;23.70;8.85;;;;;;;20.41;68.26;99045.16;5031954;28;20091;-52
2022/08/30 01:56:20;;;;;;;18.10;8.60;;;;;;;20.42;68.68;99052.28;5022986;28;20029;-49
2022/08/30 01:58:46;;;;;;;24.40;8.68;;;;;;;20.45;68.33;99060.84;5025962;28;20041;-50
2022/08/30 02:01:15;;;;;;;15.68;7.97;;;;;;;20.42;68.45;99047.66;5031081;28;20040;-50
2022/08/30 02:03:42;;;;;;;14.88;7.88;;;;;;;20.41;68.65;99062.31;5018702;28;20038;-51
2022/08/30 02:06:12;;;;;;;22.45;8.00;;;;;;;20.34;68.84;99050.59;5012208;28;20103;-53
2022/08/30 02:08:39;;;;;;;14.50;8.40;;;;;;;20.20;69.08;99042.41;5015402;28;20120;-58
2022/08/30 02:11:05;;;;;;;16.15;8.50;;;;;;;20.13;69.54;99047.00;5032062;28;20029;-56
2022/08/30 02:13:32;;;;;;;16.98;8.75;;;;;;;20.05;70.01;99041.75;5032218;28;20358;-53
2022/08/30 02:15:58;;;;;;;19.20;9.50;;;;;;;19.93;70.29;99045.06;5017453;28;20073;-53
2022/08/30 02:18:26;;;;;;;15.95;8.73;;;;;;;19.88;70.41;99046.69;5012058;28;20108;-55
2022/08/30 02:20:51;;;;;;;18.75;8.32;;;;;;;19.77;70.87;99035.38;5011965;28;20037;-54
2022/08/30 02:23:17;;;;;;;19.80;9.45;;;;;;;19.77;70.87;99051.66;5028626;28;20077;-53
2022/08/30 02:25:43;;;;;;;16.02;8.90;;;;;;;19.73;71.17;99050.41;5031681;28;20449;-52
2022/08/30 02:28:10;;;;;;;16.05;9.20;;;;;;;19.70;71.31;99052.66;5031757;28;20066;-54
2022/08/30 02:30:35;;;;;;;16.73;9.10;;;;;;;19.64;71.62;99054.31;5020454;28;20043;-52
2022/08/30 02:33:01;;;;;;;24.92;9.27;;;;;;;19.68;71.33;99060.19;5011931;28;20490;-53
2022/08/30 02:35:26;;;;;;;19.10;8.98;;;;;;;19.65;71.33;99064.13;5011918;28;20057;-54
2022/08/30 02:37:52;;;;;;;18.48;9.40;;;;;;;19.62;71.39;99059.97;5024873;28;20052;-50
2022/08/30 02:40:19;;;;;;;19.10;9.35;;;;;;;19.62;71.23;99069.97;5031433;28;20041;-50
2022/08/30 02:42:45;;;;;;;22.55;9.57;;;;;;;19.62;71.79;99069.97;5026789;28;20083;-50
2022/08/30 02:45:10;;;;;;;20.67;9.60;;;;;;;19.60;71.49;99072.91;5012183;28;20381;-55
2022/08/30 02:47:36;;;;;;;20.50;9.88;;;;;;;19.55;71.60;99053.66;5012246;28;20411;-55
2022/08/30 02:50:06;;;;;;;23.60;9.38;;;;;;;19.65;71.75;99080.44;5017458;28;20041;-52
2022/08/30 02:52:31;;;;;;;17.83;9.40;;;;;;;19.46;71.84;99044.00;5031294;28;20036;-53
2022/08/30 02:54:58;;;;;;;17.20;9.02;;;;;;;19.64;71.71;99073.31;5031704;28;20477;-51
2022/08/30 02:57:24;;;;;;;19.98;9.77;;;;;;;19.65;71.69;99075.84;5012513;28;20105;-53
2022/08/30 02:59:49;;;;;;;21.80;9.93;;;;;;;19.46;71.15;99044.00;5011123;28;20455;-55
2022/08/30 03:02:15;;;;;;;16.67;9.15;;;;;;;19.73;71.05;99072.13;5011423;28;20030;-53
2022/08/30 03:04:43;;;;;;;20.08;9.40;;;;;;;19.76;71.23;99077.16;5022970;28;20478;-57
2022/08/30 03:07:08;;;;;;;20.27;10.05;;;;;;;19.82;70.88;99080.94;5031093;28;20037;-52
2022/08/30 03:09:35;;;;;;;18.63;10.10;;;;;;;19.88;70.47;99082.84;5027683;28;20041;-54
2022/08/30 03:12:01;;;;;;;19.83;9.43;;;;;;;19.95;70.25;99077.47;5030502;28;20040;-55
2022/08/30 03:14:27;;;;;;;25.27;10.20;;;;;;;20.05;70.13;99072.47;5029715;28;20029;-53
2022/08/30 03:16:53;;;;;;;19.38;9.95;;;;;;;20.16;69.66;99081.91;5029013;28;20112;-53
2022/08/30 03:19:19;;;;;;;24.65;9.57;;;;;;;20.29;68.87;99072.94;5030769;28;20025;-53
2022/08/30 03:21:44;;;;;;;22.38;9.93;;;;;;;20.44;68.48;99075.47;5031039;28;20044;-54
2022/08/30 03:24:10;;;;;;;16.67;8.98;;;;;;;20.54;68.04;99060.66;5023458;28;20041;-53
2022/08/30 03:26:35;;;;;;;26.70;9.80;;;;;;;20.76;67.29;99069.44;5010875;28;20533;-52
2022/08/30 03:29:01;;;;;;;20.33;10.55;;;;;;;21.00;66.51;99064.44;5010817;28;20772;-53
2022/08/30 03:31:27;;;;;;;15.50;9.20;;;;;;;21.35;65.45;99065.00;5029098;28;20104;-52
2022/08/30 03:33:52;;;;;;;18.45;9.95;;;;;;;21.87;63.80;99057.94;5030899;28;20030;-53
2022/08/30 03:36:18;;;;;;;28.75;10.00;;;;;;;22.58;61.30;99063.41;5021160;28;20042;-48
2022/08/30 03:38:44;;;;;;;18.08;9.05;;;;;;;23.36;58.94;99062.06;5010519;28;20038;-52
2022/08/30 03:41:10;;;;;;;20.23;9.60;;;;;;;24.20;56.08;99063.41;5011291;28;20088;-61
2022/08/30 03:43:36;;;;;;;19.05;9.50;;;;;;;24.97;53.67;99063.69;5011989;28;20463;-55
2022/08/30 03:46:01;;;;;;;16.38;9.57;;;;;;;25.71;51.20;99053.25;5010781;28;20037;-50
2022/08/30 03:48:28;;;;;;;17.58;8.82;;;;;;;26.50;48.89;99069.03;5011378;28;20030;-51
2022/08/30 03:50:54;;;;;;;20.40;9.82;;;;;;;27.28;46.96;99075.81;5010796;28;20030;-54
2022/08/30 03:53:19;;;;;;;18.23;9.40;;;;;;;27.96;45.08;99076.66;5019180;28;20034;-49
2022/08/30 03:55:44;;;;;;;17.67;9.38;;;;;;;28.43;43.84;99067.84;5021388;28;20109;-53
2022/08/30 03:58:10;;;;;;;19.05;9.02;;;;;;;28.85;42.61;99077.34;5009246;28;20220;-53
2022/08/30 04:00:36;;;;;;;13.18;8.95;;;;;;;29.01;41.95;99074.69;5010469;28;20084;-52
2022/08/30 04:03:02;;;;;;;21.23;8.93;;;;;;;28.99;41.92;99074.97;5013726;28;20049;-50
2022/08/30 04:05:27;;;;;;;21.08;8.70;;;;;;;29.12;41.19;99070.91;5026930;28;20149;-50
2022/08/30 04:07:53;;;;;;;22.38;8.25;;;;;;;29.32;40.75;99061.94;5030170;28;20428;-50
2022/08/30 04:10:21;;;;;;;16.58;8.98;;;;;;;29.58;40.11;99075.88;5029160;28;20060;-54
2022/08/30 04:12:50;;;;;;;15.48;8.85;;;;;;;30.03;39.88;99081.03;5028433;28;20445;-55
2022/08/30 04:15:18;;;;;;;20.98;9.25;;;;;;;29.94;39.35;99076.03;5029870;28;20027;-55
2022/08/30 04:17:43;;;;;;;17.25;8.88;;;;;;;29.73;39.67;99079.81;5028908;28;20037;-53
2022/08/30 04:20:09;;;;;;;17.60;9.23;;;;;;;29.94;39.08;99070.50;5030141;28;20465;-50
2022/08/30 04:22:35;;;;;;;20.23;9.10;;;;;;;30.17;38.64;99067.56;5030233;28;20536;-55
2022/08/30 04:25:02;;;;;;;21.77;8.70;;;;;;;30.34;38.69;99081.09;5030519;28;20037;-55
2022/08/30 04:27:28;;;;;;;14.32;8.80;;;;;;;30.51;37.96;99078.13;5031767;28;20370;-55
2022/08/30 04:29:55;;;;;;;18.60;9.43;;;;;;;30.96;37.23;99085.84;5034293;28;20127;-51
2022/08/30 04:32:21;;;;;;;16.08;9.50;;;;;;;31.41;36.19;99075.84;5031800;28;20036;-53
2022/08/30 04:34:47;;;;;;;18.80;9.27;;;;;;;31.67;35.14;99067.47;5033512;28;20092;-51
2022/08/30 04:37:13;;;;;;;15.90;9.02;;;;;;;32.16;34.94;99078.88;5033492;28;20061;-48
2022/08/30 04:39:39;;;;;;;23.23;9.88;;;;;;;32.73;33.41;99081.28;5032146;28;20388;-50
2022/08/30 04:42:05;;;;;;;20.48;9.13;;;;;;;33.50;32.07;99074.19;5033662;28;20973;-53
2022/08/30 04:44:31;;;;;;;17.73;9.60;;;;;;;34.34;30.60;99078.38;5031934;28;20060;-54
2022/08/30 04:46:57;;;;;;;14.68;9.52;;;;;;;35.13;29.10;99073.25;5033525;28;20419;-52
2022/08/30 04:49:23;;;;;;;13.88;9.10;;;;;;;35.74;28.55;99070.38;5033997;28;20037;-54
2022/08/30 04:51:49;;;;;;;19.20;9.95;;;;;;;36.36;27.62;99071.00;5024409;28;20034;-54
2022/08/30 04:54:14;;;;;;;23.73;10.52;;;;;;;36.78;26.23;99054.13;5013811;28;20441;-54
2022/08/30 04:56:40;;;;;;;16.42;9.60;;;;;;;37.03;26.03;99054.63;5014720;28;20053;-51
2022/08/30 04:59:05;;;;;;;16.58;10.05;;;;;;;37.22;26.17;99070.28;5013808;28;20042;-54
2022/08/30 05:01:32;;;;;;;16.52;10.15;;;;;;;37.60;25.38;99079.00;5012275;28;20061;-54
2022/08/30 05:03:58;;;;;;;19.77;10.07;;;;;;;37.27;25.54;99079.34;5012912;28;20486;-55
2022/08/30 05:06:27;;;;;;;13.70;10.23;;;;;;;37.49;25.49;99088.81;5014578;28;20068;-53
2022/08/30 05:08:53;;;;;;;14.00;9.73;;;;;;;37.61;25.08;99082.63;5013833;28;20108;-53
2022/08/30 05:11:20;;;;;;;15.23;10.02;;;;;;;36.90;26.21;99087.00;5013949;28;20037;-55
2022/08/30 05:13:45;;;;;;;15.10;11.18;;;;;;;36.15;27.05;99079.84;5013812;28;20037;-50
2022/08/30 05:16:16;;;;;;;14.25;10.13;;;;;;;35.63;27.70;99089.28;5013404;28;20371;-52
2022/08/30 05:18:43;;;;;;;21.08;10.40;;;;;;;35.35;28.01;99086.44;5013483;28;20040;-52
2022/08/30 05:21:13;;;;;;;17.50;10.18;;;;;;;36.11;27.17;99092.75;5014173;28;20386;-52
2022/08/30 05:23:40;;;;;;;15.77;9.90;;;;;;;37.04;25.81;99086.97;5013136;28;20478;-54
2022/08/30 05:26:07;;;;;;;23.40;9.88;;;;;;;38.19;24.10;99083.41;5013387;28;20496;-52
2022/08/30 05:28:34;;;;;;;28.10;9.95;;;;;;;39.27;22.74;99094.19;5014481;28;20108;-51
2022/08/30 05:31:01;;;;;;;13.80;9.63;;;;;;;40.04;21.65;99088.53;5013318;28;20034;-52
2022/08/30 05:33:27;;;;;;;17.05;10.50;;;;;;;40.77;20.65;99093.28;5013991;28;20040;-49
2022/08/30 05:35:52;;;;;;;16.08;10.32;;;;;;;41.01;20.18;99082.13;5012992;28;20405;-52
2022/08/30 05:38:18;;;;;;;16.75;10.20;;;;;;;39.23;22.13;99063.22;5013872;28;20073;-52
2022/08/30 05:40:43;;;;;;;17.08;10.43;;;;;;;38.04;24.40;99092.28;5013745;28;20030;-53
2022/08/30 05:43:10;;;;;;;21.88;10.70;;;;;;;38.96;23.01;99087.69;5012962;28;20030;-56
2022/08/30 05:45:36;;;;;;;16.92;10.68;;;;;;;40.42;21.47;99083.19;5013921;28;20033;-52
2022/08/30 05:48:02;;;;;;;22.63;10.82;;;;;;;42.04;19.43;99082.28;5013345;28;20060;-53
2022/08/30 05:50:27;;;;;;;20.45;11.23;;;;;;;43.27;17.85;99078.47;5012760;28;20034;-54
2022/08/30 05:52:53;;;;;;;14.75;10.52;;;;;;;44.12;16.86;99078.13;5013348;28;20034;-52
2022/08/30 05:55:18;;;;;;;19.52;10.88;;;;;;;44.95;16.31;99084.66;5013087;28;20034;-55
2022/08/30 05:57:44;;;;;;;20.00;10.63;;;;;;;45.70;15.32;99089.97;5011982;28;20034;-50
2022/08/30 06:00:13;;;;;;;17.33;10.25;;;;;;;46.44;14.46;99092.63;5013187;28;20052;-52
2022/08/30 06:02:40;;;;;;;20.35;10.10;;;;;;;47.01;14.37;99086.00;5012448;28;20127;-53
2022/08/30 06:05:06;;;;;;;24.50;10.23;;;;;;;47.54;13.83;99101.88;5012723;28;20052;-55
2022/08/30 06:07:32;;;;;;;19.08;10.55;;;;;;;48.02;13.04;99085.97;5012749;28;20038;-54
2022/08/30 06:09:58;;;;;;;14.98;10.98;;;;;;;48.47;12.91;99088.66;5013888;28;20042;-56
2022/08/30 06:12:23;;;;;;;18.88;10.75;;;;;;;48.86;12.34;99084.28;5012862;28;20457;-55
2022/08/30 06:14:48;;;;;;;18.98;10.65;;;;;;;49.09;12.17;99083.94;5012349;28;20112;-55
2022/08/30 06:17:14;;;;;;;15.10;10.65;;;;;;;49.26;11.83;99084.34;5022568;28;20139;-51
2022/08/30 06:19:40;;;;;;;14.00;9.90;;;;;;;49.77;11.87;99085.13;5032129;28;20033;-53
2022/08/30 06:22:05;;;;;;;17.40;10.95;;;;;;;50.39;11.22;99085.75;5029844;28;20035;-55
2022/08/30 06:24:31;;;;;;;16.70;11.15;;;;;;;50.84;10.88;99075.75;5031991;28;20033;-52
2022/08/30 06:26:56;;;;;;;16.75;9.98;;;;;;;51.04;10.54;99089.47;5025110;28;20057;-53
2022/08/30 06:29:22;;;;;;;16.50;10.52;;;;;;;51.20;10.13;99088.94;5029773;28;20064;-55
2022/08/30 06:31:48;;;;;;;16.25;10.45;;;;;;;51.26;10.31;99092.97;5032020;28;20462;-52
2022/08/30 06:34:14;;;;;;;18.45;10.85;;;;;;;51.51;10.27;99098.47;5030711;28;20052;-52
2022/08/30 06:36:40;;;;;;;16.48;11.18;;;;;;;51.42;10.58;99089.59;5030686;28;20029;-54
2022/08/30 06:39:07;;;;;;;16.38;10.18;;;;;;;51.67;10.16;99095.06;5031252;28;20033;-54
2022/08/30 06:41:34;;;;;;;16.73;10.30;;;;;;;52.21;9.89;99098.56;5019355;28;20033;-57
2022/08/30 06:44:02;;;;;;;14.98;10.90;;;;;;;52.78;9.45;99090.47;5025527;28;20018;-48
2022/08/30 06:46:31;;;;;;;18.73;10.45;;;;;;;53.19;8.76;99092.31;5029300;28;20033;-52
2022/08/30 06:48:57;;;;;;;17.98;10.82;;;;;;;53.36;9.26;99081.03;5010319;28;20030;-50
2022/08/30 06:51:31;;;;;;;14.27;10.48;;;;;;;54.02;8.42;99089.97;5010560;28;20045;-54
2022/08/30 06:53:57;;;;;;;15.52;10.60;;;;;;;54.12;8.23;99081.66;5014132;28;20029;-60
2022/08/30 06:56:24;;;;;;;18.77;10.68;;;;;;;54.33;7.84;99080.38;5023965;28;20457;-51
2022/08/30 06:58:50;;;;;;;16.90;11.30;;;;;;;53.88;8.15;99073.91;5026833;28;20091;-53
2022/08/30 07:01:19;;;;;;;15.68;11.13;;;;;;;53.36;8.87;99083.88;5021555;28;20037;-56
2022/08/30 07:03:45;;;;;;;16.67;11.65;;;;;;;52.58;9.38;99076.88;5016678;28;20038;-53
2022/08/30 07:06:12;;;;;;;12.00;10.50;;;;;;;52.74;8.79;99066.88;5022267;28;20052;-52
2022/08/30 07:08:39;;;;;;;15.00;10.73;;;;;;;52.56;9.01;99065.06;5022007;28;20037;-53
2022/08/30 07:11:06;;;;;;;17.35;10.40;;;;;;;52.37;9.19;99078.00;5030356;28;20480;-49
2022/08/30 07:13:33;;;;;;;16.13;10.93;;;;;;;52.47;9.39;99074.19;5012135;28;20042;-55
2022/08/30 07:15:58;;;;;;;14.45;10.40;;;;;;;50.99;9.81;99076.47;5021150;28;20029;-54
2022/08/30 07:21:14;;;;;;;15.02;10.85;;;;;;;45.31;14.43;99073.16;5016301;28;20029;-50
2022/08/30 07:23:42;;;;;;;15.45;10.00;;;;;;;43.09;16.30;99073.22;5021521;28;20037;-52
2022/08/30 07:26:12;;;;;;;21.15;10.68;;;;;;;41.75;17.88;99067.34;5012222;28;20212;-54
2022/08/30 07:28:39;;;;;;;17.65;10.82;;;;;;;41.69;18.01;99087.59;5027493;28;20037;-51
2022/08/30 07:31:05;;;;;;;16.25;11.00;;;;;;;43.03;16.42;99052.97;5017248;28;20025;-51
2022/08/30 07:33:31;;;;;;;18.10;10.85;;;;;;;45.01;15.00;99071.84;5029686;28;20037;-52
2022/08/30 07:35:58;;;;;;;16.88;10.73;;;;;;;46.42;13.67;99072.34;5029371;28;20037;-53
2022/08/30 07:38:24;;;;;;;15.93;10.55;;;;;;;47.50;12.58;99074.69;5029301;28;20044;-49
2022/08/30 07:40:50;;;;;;;17.85;10.40;;;;;;;48.21;12.07;99073.53;5028475;28;20424;-54
2022/08/30 07:43:15;;;;;;;18.67;11.18;;;;;;;49.27;11.52;99071.75;5020662;28;20064;-50
2022/08/30 07:45:41;;;;;;;17.83;10.73;;;;;;;50.20;10.70;99072.00;5029898;28;20040;-52
2022/08/30 07:48:07;;;;;;;20.95;12.05;;;;;;;50.71;10.28;99072.59;5028835;28;20112;-50
2022/08/30 07:50:32;;;;;;;16.55;10.60;;;;;;;51.01;9.94;99076.06;5015502;28;20035;-50
2022/08/30 07:52:58;;;;;;;13.18;10.15;;;;;;;50.63;10.05;99082.41;5010019;28;20042;-55
2022/08/30 07:55:23;;;;;;;19.80;11.13;;;;;;;49.25;10.71;99075.03;5011080;28;20029;-51
2022/08/30 07:57:49;;;;;;;16.73;10.55;;;;;;;48.39;11.73;99073.56;5028492;28;20035;-54
2022/08/30 08:00:15;;;;;;;15.60;10.38;;;;;;;47.94;12.34;99073.78;5029405;28;20065;-55
2022/08/30 08:02:41;;;;;;;17.55;10.45;;;;;;;47.35;12.70;99074.56;5027420;28;20108;-53
2022/08/30 08:05:08;;;;;;;16.70;10.95;;;;;;;46.49;13.22;99072.47;5021058;28;20116;-55
2022/08/30 08:07:34;;;;;;;20.02;10.65;;;;;;;45.13;14.10;99070.84;5033365;28;20037;-50
2022/08/30 08:10:00;;;;;;;17.02;10.93;;;;;;;43.50;16.08;99067.41;5033218;28;20755;-53
2022/08/30 08:12:26;;;;;;;17.02;11.25;;;;;;;41.58;17.54;99065.56;5023915;28;20033;-50
2022/08/30 08:14:52;;;;;;;19.63;11.98;;;;;;;40.09;19.06;99076.31;5027124;28;20527;-58
2022/08/30 08:17:18;;;;;;;14.77;11.15;;;;;;;38.58;20.73;99055.63;5033115;28;20033;-50
2022/08/30 08:19:43;;;;;;;18.65;12.48;;;;;;;37.44;22.04;99070.22;5028965;28;20411;-53
2022/08/30 08:22:09;;;;;;;18.05;12.25;;;;;;;36.40;23.14;99058.06;5013607;28;20091;-56
2022/08/30 08:24:34;;;;;;;20.25;11.80;;;;;;;35.77;24.48;99066.19;5014152;28;20033;-54
2022/08/30 08:26:59;;;;;;;18.10;11.48;;;;;;;35.28;25.01;99066.56;5017039;28;20126;-52
2022/08/30 08:29:26;;;;;;;23.88;11.73;;;;;;;34.93;25.30;99061.34;5012778;28;20121;-48
2022/08/30 08:31:53;;;;;;;15.13;12.63;;;;;;;34.26;26.59;99067.16;5013795;28;20057;-57
2022/08/30 08:34:22;;;;;;;18.00;12.25;;;;;;;33.79;27.31;99045.56;5015733;28;20378;-57
2022/08/30 08:36:50;;;;;;;21.77;12.27;;;;;;;33.43;27.46;99045.97;5031495;28;20110;-53
2022/08/30 08:39:16;;;;;;;22.83;12.38;;;;;;;33.21;28.25;99072.25;5027741;28;20075;-56
2022/08/30 08:42:07;;;;;;;18.40;12.73;;;;;;;33.18;28.55;99072.84;5013089;28;20038;-56
2022/08/30 08:44:58;;;;;;;20.20;12.70;;;;;;;32.98;28.34;99074.72;5013194;28;20029;-55
2022/08/30 08:47:34;;;;;;;19.55;12.80;;;;;;;32.65;29.05;99074.44;5013607;28;20021;-54
2022/08/30 08:50:04;;;;;;;17.00;11.82;;;;;;;32.38;29.01;99075.75;5014335;28;20038;-55
2022/08/30 08:55:30;;;;;;;15.43;12.43;;;;;;;31.76;30.07;99070.47;5014180;28;20061;-54
2022/08/30 08:57:56;;;;;;;19.88;12.63;;;;;;;31.71;30.65;99073.28;5021189;28;20029;-54
2022/08/30 09:00:21;;;;;;;17.10;12.23;;;;;;;31.69;30.61;99070.78;5032947;28;20424;-58
2022/08/30 09:03:04;;;;;;;17.65;11.60;;;;;;;31.78;30.12;99080.19;5027118;28;20021;-53
2022/08/30 09:05:39;;;;;;;17.85;11.98;;;;;;;31.73;30.26;99087.66;5031296;28;20077;-56
2022/08/30 09:08:07;;;;;;;20.90;11.90;;;;;;;31.56;30.32;99088.81;5031277;28;20044;-54
2022/08/30 09:10:34;;;;;;;17.63;11.57;;;;;;;31.41;30.96;99080.56;5032931;28;20061;-51
2022/08/30 09:13:00;;;;;;;18.67;11.18;;;;;;;31.40;30.76;99070.63;5031781;28;20025;-55
2022/08/30 09:15:30;;;;;;;17.02;12.02;;;;;;;31.57;30.37;99081.34;5022201;28;20052;-56
2022/08/30 09:18:04;;;;;;;17.50;11.77;;;;;;;31.73;30.26;99093.19;5026544;28;20045;-59
2022/08/30 09:20:44;;;;;;;14.17;10.73;;;;;;;31.77;30.22;99083.22;5031642;28;20422;-55
2022/08/30 09:23:13;;;;;;;14.80;10.82;;;;;;;31.74;30.10;99084.63;5012711;28;20172;-58
2022/08/30 09:26:08;;;;;;;13.30;11.63;;;;;;;31.85;29.93;99085.44;5015150;28;20045;-59
2022/08/30 09:28:47;;;;;;;16.85;11.77;;;;;;;31.91;29.40;99084.28;5021385;28;20041;-54
2022/08/30 09:31:17;;;;;;;18.70;11.05;;;;;;;31.78;29.98;99085.72;5024261;28;20377;-57
2022/08/30 09:34:04;;;;;;;16.90;11.70;;;;;;;31.83;29.73;99084.88;5020397;28;20036;-59
2022/08/30 09:36:40;;;;;;;21.80;11.90;;;;;;;31.67;30.08;99086.84;5021467;28;20030;-60
2022/08/30 09:39:19;;;;;;;14.75;11.52;;;;;;;31.63;29.80;99091.28;5020557;28;20029;-55
2022/08/30 09:41:48;;;;;;;16.92;11.80;;;;;;;31.41;30.76;99077.81;5019286;28;20035;-60
2022/08/30 09:44:26;;;;;;;19.30;11.98;;;;;;;31.43;30.80;99083.88;5025316;28;20449;-54
2022/08/30 09:46:57;;;;;;;22.00;12.20;;;;;;;31.51;29.80;99086.06;5014389;28;20392;-60
2022/08/30 09:49:36;;;;;;;19.00;12.20;;;;;;;31.52;30.01;99086.91;5016352;28;20026;-56
2022/08/30 09:52:05;;;;;;;18.08;11.80;;;;;;;31.47;30.13;99076.69;5010050;28;20555;-51
2022/08/30 09:54:39;;;;;;;18.58;12.48;;;;;;;31.54;30.28;99074.44;5008439;28;20093;-54
2022/08/30 09:57:36;;;;;;;20.13;12.48;;;;;;;31.75;30.00;99071.59;5011317;28;20084;-54
2022/08/30 10:00:06;;;;;;;21.05;12.40;;;;;;;31.62;29.68;99073.03;5012273;28;20038;-54
2022/08/30 10:02:57;;;;;;;18.67;14.40;;;;;;;31.85;29.46;99079.88;5011772;28;20088;-57
2022/08/30 10:05:23;;;;;;;21.15;12.68;;;;;;;31.90;29.31;99071.56;5011883;28;20402;-54
2022/08/30 10:08:07;;;;;;;19.60;12.30;;;;;;;31.99;28.85;99068.19;5011836;28;20486;-57
2022/08/30 10:10:46;;;;;;;19.70;12.80;;;;;;;32.05;28.51;99084.50;5012377;28;20053;-55
2022/08/30 10:13:14;;;;;;;14.75;12.75;;;;;;;31.73;28.75;99065.50;5023938;28;20087;-58
2022/08/30 10:15:45;;;;;;;18.30;12.50;;;;;;;31.70;29.28;99079.91;5030759;28;20037;-60
2022/08/30 10:18:29;;;;;;;19.67;12.57;;;;;;;31.87;28.69;99072.13;5031906;28;20108;-57
2022/08/30 10:21:15;;;;;;;17.05;12.57;;;;;;;32.12;28.43;99080.56;5031943;28;20025;-56
2022/08/30 10:23:47;;;;;;;17.08;12.63;;;;;;;31.98;28.41;99055.47;5030489;28;20536;-58
2022/08/30 10:26:33;;;;;;;16.85;12.82;;;;;;;32.05;28.75;99073.41;5031654;28;20460;-57
2022/08/30 10:29:07;;;;;;;15.80;13.52;;;;;;;31.82;28.57;99063.00;5030816;28;20041;-59
2022/08/30 10:31:51;;;;;;;17.17;13.20;;;;;;;32.03;28.57;99078.41;5031242;28;20096;-56
2022/08/30 10:34:30;;;;;;;22.77;13.25;;;;;;;31.98;28.88;99077.59;5031956;28;20029;-57
2022/08/30 10:37:01;;;;;;;18.95;12.82;;;;;;;31.98;28.39;99078.44;5031453;28;20044;-51
2022/08/30 10:39:32;;;;;;;20.77;12.55;;;;;;;31.99;28.80;99082.03;5030681;28;20029;-55
2022/08/30 10:42:06;;;;;;;20.65;12.88;;;;;;;31.90;28.48;99057.72;5029670;28;20369;-58
2022/08/30 10:44:38;;;;;;;22.52;14.45;;;;;;;31.99;28.13;99079.25;5011136;28;20032;-55
2022/08/30 10:47:48;;;;;;;20.92;13.40;;;;;;;31.95;27.55;99076.22;5011040;28;20026;-57
2022/08/30 10:50:30;;;;;;;20.83;13.63;;;;;;;31.74;28.08;99081.00;5016012;28;20053;-55
2022/08/30 10:53:10;;;;;;;18.17;12.35;;;;;;;31.51;28.83;99080.53;5021725;28;20026;-54
2022/08/30 10:55:44;;;;;;;17.88;12.63;;;;;;;31.26;29.05;99078.69;5020261;28;20087;-56
2022/08/30 10:58:11;;;;;;;17.92;12.60;;;;;;;30.97;29.50;99071.78;5020360;28;20033;-55
2022/08/30 11:01:10;;;;;;;17.20;13.07;;;;;;;31.07;29.29;99082.00;5021129;28;20041;-52
2022/08/30 11:03:54;;;;;;;17.00;12.68;;;;;;;30.89;28.81;99075.91;5018955;28;20053;-56
2022/08/30 11:06:44;;;;;;;15.27;11.65;;;;;;;30.91;27.60;99072.88;5020632;28;20458;-58
2022/08/30 11:09:40;;;;;;;16.55;11.48;;;;;;;30.92;28.10;99069.84;5018512;28;20061;-57
2022/08/30 11:12:27;;;;;;;18.70;12.40;;;;;;;30.90;28.11;99077.56;5018727;28;20124;-55
2022/08/30 11:14:54;;;;;;;18.20;12.00;;;;;;;30.89;27.67;99070.38;5018429;28;20108;-58
2022/08/30 11:17:25;;;;;;;20.08;11.93;;;;;;;31.00;28.20;99071.22;5011283;28;20038;-64
2022/08/30 11:19:53;;;;;;;18.15;12.48;;;;;;;31.18;28.04;99066.22;4993757;28;20049;-56
2022/08/30 11:22:35;;;;;;;19.40;12.73;;;;;;;31.57;27.43;99067.53;5025707;28;20049;-54
2022/08/30 11:25:34;;;;;;;22.73;12.93;;;;;;;31.88;27.47;99067.41;5028622;28;20037;-51
2022/08/30 11:28:00;;;;;;;16.67;12.70;;;;;;;31.72;27.39;99064.69;5021137;28;20064;-52
2022/08/30 11:30:45;;;;;;;22.63;13.23;;;;;;;31.76;27.10;99059.41;5010300;28;20058;-52
2022/08/30 11:33:10;;;;;;;22.55;12.38;;;;;;;31.55;27.11;99059.50;5010472;28;20375;-53
2022/08/30 11:35:51;;;;;;;19.83;12.40;;;;;;;31.42;27.17;99062.88;5017534;28;20064;-57
2022/08/30 11:38:25;;;;;;;16.88;11.85;;;;;;;31.27;26.91;99056.25;5029952;28;20523;-54